Bratislava, Slovakia
Current Conditions -  °F | °C
As of 7:00 PM on Saturday 22 Nov 2014 (Local Time) from LZIB Reporting Station
Overcast Overcast  
Wind Chill:   Ceiling: 2500
Heat Index:   Visibility: 4mi
Dew Point:   Wind: 7mph
Humidity: 87%   Direction: 40°NE
Pressure: 30.33"   Gusts: NA
Location:  48.16°N, 17.13°E
Report Text: LZIB 221700Z 04006KT 7000 FEW008 OVC025 05/03 Q1027 NOSIG
Loading
Personal Weather Stations






























Interactive Weather Map New forecast layout! Learn more

10-Day Weather Forecast

Advertisements
Track Severe Weather on mobile